Time;durP1;ratioP1;P1;durP2;ratioP2;P2;SDS_P1;SDS_P2;PMS_P1;PMS_P2;Temp;Humidity;BMP_temperature;BMP_pressure;BME280_temperature;BME280_humidity;BME280_pressure;Samples;Min_cycle;Max_cycle;Signal;HPM_P1;HPM_P2
2022/05/02 00:00:51;;;;;;;17.45;15.63;;;;;;;10.42;100.00;99526.75;4955264;29;20207;-77
2022/05/02 00:03:18;;;;;;;17.17;15.38;;;;;;;10.40;100.00;99528.69;4955665;29;20192;-76
2022/05/02 00:05:58;;;;;;;15.57;14.18;;;;;;;10.47;100.00;99529.19;4955211;29;20201;-78
2022/05/02 00:08:29;;;;;;;17.98;15.45;;;;;;;10.36;100.00;99516.38;4955166;29;20595;-77
2022/05/02 00:10:55;;;;;;;16.67;14.82;;;;;;;10.38;100.00;99517.16;4954941;29;20200;-77
2022/05/02 00:13:22;;;;;;;17.15;15.30;;;;;;;10.18;100.00;99516.44;4953900;29;20311;-76
2022/05/02 00:15:48;;;;;;;20.30;15.82;;;;;;;10.03;100.00;99510.13;4954655;29;20189;-76
2022/05/02 00:18:20;;;;;;;16.20;14.55;;;;;;;10.00;100.00;99523.75;4954760;29;20233;-78
2022/05/02 00:20:50;;;;;;;16.73;15.07;;;;;;;9.87;100.00;99517.34;4955086;29;20882;-77
2022/05/02 00:23:16;;;;;;;17.05;15.35;;;;;;;9.89;100.00;99512.75;4954045;29;20202;-78
2022/05/02 00:25:44;;;;;;;16.60;14.93;;;;;;;9.88;100.00;99513.72;4939945;29;20197;-77
2022/05/02 00:28:15;;;;;;;18.10;14.15;;;;;;;9.82;100.00;99509.53;4954523;29;20201;-77
2022/05/02 00:30:42;;;;;;;17.27;14.90;;;;;;;9.77;100.00;99511.63;4954434;29;20283;-77
2022/05/02 00:33:09;;;;;;;16.13;14.52;;;;;;;9.73;100.00;99506.50;4954260;29;20209;-78
2022/05/02 00:35:36;;;;;;;15.98;14.30;;;;;;;9.82;100.00;99504.16;4954305;29;20289;-78
2022/05/02 00:38:05;;;;;;;14.23;12.82;;;;;;;9.92;100.00;99506.31;4954700;29;20635;-78
2022/05/02 00:40:32;;;;;;;16.42;14.60;;;;;;;9.82;100.00;99501.47;4954687;29;20654;-76
2022/05/02 00:43:00;;;;;;;14.95;13.55;;;;;;;9.92;100.00;99501.78;4954203;29;20196;-77
2022/05/02 00:45:26;;;;;;;15.75;13.48;;;;;;;10.04;100.00;99492.19;4954370;28;20193;-76
2022/05/02 00:47:55;;;;;;;14.70;13.20;;;;;;;10.13;100.00;99498.81;4954355;29;20294;-76
2022/05/02 00:50:34;;;;;;;14.70;13.20;;;;;;;10.37;100.00;99497.44;4953827;29;20193;-78
2022/05/02 00:53:02;;;;;;;14.15;12.65;;;;;;;10.36;100.00;99498.41;4954014;28;20308;-77
2022/05/02 00:55:30;;;;;;;12.93;11.63;;;;;;;10.17;100.00;99497.69;4954256;29;20192;-78
2022/05/02 00:57:58;;;;;;;13.90;12.50;;;;;;;10.00;100.00;99496.00;4952993;28;20204;-77
2022/05/02 01:00:26;;;;;;;14.63;12.70;;;;;;;9.86;100.00;99495.91;4954061;29;20662;-76
2022/05/02 01:02:53;;;;;;;15.25;13.50;;;;;;;10.02;100.00;99494.94;4953757;29;20195;-77
2022/05/02 01:05:19;;;;;;;13.73;12.43;;;;;;;10.10;100.00;99490.94;4953979;29;20202;-76
2022/05/02 01:07:46;;;;;;;14.88;12.98;;;;;;;10.06;100.00;99492.94;4954180;29;20647;-76
2022/05/02 01:10:17;;;;;;;14.73;13.15;;;;;;;10.21;100.00;99483.97;4953622;29;20217;-76
2022/05/02 01:12:44;;;;;;;16.25;14.65;;;;;;;10.13;100.00;99490.75;4953303;29;20207;-76
2022/05/02 01:15:11;;;;;;;14.45;12.82;;;;;;;10.03;100.00;99490.44;4953735;29;20276;-76
2022/05/02 01:17:39;;;;;;;14.75;13.32;;;;;;;10.14;100.00;99482.59;4953694;29;20227;-77
2022/05/02 01:20:08;;;;;;;14.75;13.25;;;;;;;9.88;100.00;99485.91;4953718;29;20204;-77
2022/05/02 01:22:35;;;;;;;14.77;13.38;;;;;;;9.89;100.00;99474.22;4953890;29;20191;-78
2022/05/02 01:25:02;;;;;;;14.77;12.98;;;;;;;9.93;100.00;99471.28;4953636;29;20192;-77
2022/05/02 01:27:28;;;;;;;16.08;14.38;;;;;;;9.94;100.00;99472.13;4953941;29;20222;-77
2022/05/02 01:29:55;;;;;;;13.98;12.52;;;;;;;9.54;100.00;99469.00;4953932;29;20198;-75
2022/05/02 01:32:21;;;;;;;14.23;12.73;;;;;;;9.52;100.00;99470.91;4953806;29;20189;-76
2022/05/02 01:34:48;;;;;;;14.80;13.30;;;;;;;9.32;100.00;99472.91;4952408;29;20232;-76
2022/05/02 01:37:16;;;;;;;16.30;13.07;;;;;;;9.35;100.00;99470.03;4954877;29;20614;-77
2022/05/02 01:39:43;;;;;;;15.30;13.77;;;;;;;9.58;100.00;99475.94;4954770;29;20199;-77
2022/05/02 01:42:11;;;;;;;17.45;14.20;;;;;;;9.44;100.00;99465.13;4953360;29;20558;-78
2022/05/02 01:44:39;;;;;;;15.02;13.43;;;;;;;9.48;100.00;99466.69;4953331;29;20191;-77
2022/05/02 01:47:08;;;;;;;14.60;13.10;;;;;;;9.59;100.00;99470.50;4953623;29;20206;-78
2022/05/02 01:49:35;;;;;;;14.90;13.45;;;;;;;9.39;100.00;99471.59;4953291;29;20192;-76
2022/05/02 01:52:01;;;;;;;15.75;14.15;;;;;;;9.33;100.00;99468.38;4953113;29;20194;-76
2022/05/02 01:54:29;;;;;;;14.98;13.38;;;;;;;9.38;100.00;99461.81;4953562;29;20214;-77
2022/05/02 01:56:56;;;;;;;16.02;14.32;;;;;;;9.42;100.00;99469.69;4953523;29;20199;-77
2022/05/02 01:59:23;;;;;;;14.20;12.70;;;;;;;9.40;100.00;99465.25;4952878;29;20219;-77
2022/05/02 02:01:49;;;;;;;14.18;12.60;;;;;;;9.32;100.00;99463.97;4952837;29;20200;-76
2022/05/02 02:07:00;;;;;;;14.48;12.98;;;;;;;9.26;100.00;99464.31;4956940;29;20202;-76
2022/05/02 02:09:27;;;;;;;14.60;13.10;;;;;;;9.29;100.00;99467.66;4957071;29;20194;-78
2022/05/02 02:11:55;;;;;;;14.32;12.77;;;;;;;9.26;100.00;99467.84;4957071;29;20222;-77
2022/05/02 02:14:22;;;;;;;20.80;14.07;;;;;;;9.43;100.00;99474.09;4957317;29;20550;-78
2022/05/02 02:16:48;;;;;;;16.17;13.50;;;;;;;9.38;100.00;99472.56;4957048;29;20222;-78
2022/05/02 02:19:15;;;;;;;17.58;14.13;;;;;;;9.42;100.00;99472.38;4956710;29;20214;-77
2022/05/02 02:21:41;;;;;;;17.58;13.15;;;;;;;9.13;100.00;99469.47;4957253;29;20689;-77
2022/05/02 02:24:08;;;;;;;15.82;12.77;;;;;;;9.14;100.00;99473.91;4956818;29;20193;-77
2022/05/02 02:26:35;;;;;;;14.57;13.10;;;;;;;9.17;100.00;99469.22;4957109;29;20199;-78
2022/05/02 02:29:03;;;;;;;14.80;12.88;;;;;;;9.18;100.00;99467.44;4957213;29;20200;-77
2022/05/02 02:31:30;;;;;;;14.18;12.75;;;;;;;9.18;100.00;99467.44;4956854;29;20210;-77
2022/05/02 02:33:56;;;;;;;15.75;14.15;;;;;;;9.09;100.00;99465.22;4957184;29;20304;-78
2022/05/02 02:36:23;;;;;;;15.52;13.50;;;;;;;9.18;100.00;99470.97;4955746;29;20548;-76
2022/05/02 02:38:50;;;;;;;13.88;12.38;;;;;;;9.08;100.00;99461.66;4955681;29;20198;-77
2022/05/02 02:41:16;;;;;;;14.52;13.02;;;;;;;9.23;100.00;99465.34;4956321;29;20191;-77
2022/05/02 02:43:43;;;;;;;15.57;12.77;;;;;;;9.39;100.00;99460.84;4956596;29;20194;-77
2022/05/02 02:46:11;;;;;;;15.20;13.50;;;;;;;9.34;100.00;99454.00;4956499;29;20203;-78
2022/05/02 02:48:37;;;;;;;14.75;12.13;;;;;;;9.44;100.00;99459.75;4956120;28;20206;-76
2022/05/02 02:51:04;;;;;;;14.63;12.85;;;;;;;9.35;100.00;99451.22;4956592;29;20214;-77
2022/05/02 02:53:30;;;;;;;13.90;12.50;;;;;;;9.35;100.00;99450.38;4956222;29;20230;-78
2022/05/02 02:55:57;;;;;;;15.65;14.15;;;;;;;9.19;100.00;99453.88;4956514;29;20287;-76
2022/05/02 02:58:24;;;;;;;13.77;12.35;;;;;;;8.89;100.00;99451.06;4956205;29;20191;-78
2022/05/02 03:00:50;;;;;;;15.45;13.85;;;;;;;8.73;100.00;99455.50;4956398;29;20554;-77
2022/05/02 03:03:18;;;;;;;17.30;13.90;;;;;;;8.73;100.00;99447.47;4956529;29;20186;-77
2022/05/02 03:08:25;;;;;;;15.77;13.60;;;;;;;8.64;100.00;99442.53;4953521;28;20273;-78
2022/05/02 03:10:54;;;;;;;17.05;13.70;;;;;;;8.74;100.00;99435.75;4956270;29;20556;-77
2022/05/02 03:13:21;;;;;;;15.75;14.15;;;;;;;8.54;100.00;99434.13;4955896;29;20221;-78
2022/05/02 03:15:48;;;;;;;15.07;13.13;;;;;;;8.53;100.00;99427.03;4956102;28;20194;-78
2022/05/02 03:18:14;;;;;;;16.92;13.50;;;;;;;8.58;100.00;99434.84;4955792;29;20940;-78
2022/05/02 03:20:42;;;;;;;15.13;13.45;;;;;;;8.58;100.00;99433.03;4955996;29;20186;-77
2022/05/02 03:23:09;;;;;;;16.15;13.77;;;;;;;8.46;100.00;99425.63;4955813;29;20945;-76
2022/05/02 03:25:35;;;;;;;17.13;14.15;;;;;;;8.34;100.00;99427.06;4956449;29;20322;-77
2022/05/02 03:28:02;;;;;;;15.82;12.93;;;;;;;8.46;100.00;99429.16;4956158;29;20201;-77
2022/05/02 03:30:28;;;;;;;15.65;13.82;;;;;;;8.47;100.00;99427.34;4955824;29;20196;-77
2022/05/02 03:32:55;;;;;;;17.63;13.85;;;;;;;8.53;100.00;99427.03;4956013;29;20223;-77
2022/05/02 03:35:22;;;;;;;16.05;14.35;;;;;;;8.49;100.00;99423.63;4955896;29;20214;-78
2022/05/02 03:37:50;;;;;;;15.23;13.63;;;;;;;8.34;100.00;99421.69;4955173;29;20193;-78
2022/05/02 03:40:16;;;;;;;16.02;13.77;;;;;;;8.48;100.00;99421.00;4955920;29;20633;-78
2022/05/02 03:42:43;;;;;;;18.45;14.07;;;;;;;8.35;100.00;99426.16;4955261;29;20561;-77
2022/05/02 03:45:10;;;;;;;15.43;13.50;;;;;;;8.29;100.00;99419.25;4955607;29;20186;-78
2022/05/02 03:47:36;;;;;;;15.32;13.73;;;;;;;8.28;100.00;99416.69;4955214;29;20225;-77
2022/05/02 03:50:04;;;;;;;16.92;14.35;;;;;;;8.32;100.00;99420.91;4955565;29;20605;-77
2022/05/02 03:52:31;;;;;;;17.50;14.23;;;;;;;8.36;100.00;99419.81;4955385;28;20664;-77
2022/05/02 03:54:59;;;;;;;15.45;13.38;;;;;;;8.41;100.00;99423.19;4954606;29;20211;-77
2022/05/02 03:57:25;;;;;;;17.08;14.18;;;;;;;8.47;100.00;99424.66;4955477;29;20210;-78
2022/05/02 03:59:52;;;;;;;15.13;12.52;;;;;;;8.47;100.00;99417.47;4955398;29;20202;-77
2022/05/02 04:02:18;;;;;;;15.90;14.23;;;;;;;8.41;100.00;99417.81;4954804;29;20198;-78
2022/05/02 04:04:45;;;;;;;22.80;13.70;;;;;;;8.34;100.00;99416.34;4955399;29;20540;-77
2022/05/02 04:07:12;;;;;;;15.77;14.10;;;;;;;8.35;100.00;99423.47;4954942;29;20572;-77
2022/05/02 04:09:38;;;;;;;18.20;14.02;;;;;;;8.24;100.00;99415.09;4955161;29;20651;-77
2022/05/02 04:12:08;;;;;;;16.90;13.43;;;;;;;8.13;100.00;99416.50;4955034;29;20214;-76
2022/05/02 04:14:34;;;;;;;15.13;13.55;;;;;;;8.32;100.00;99421.81;4950495;29;20216;-78
2022/05/02 04:17:01;;;;;;;19.75;13.55;;;;;;;8.26;100.00;99418.56;4944388;29;20238;-77
2022/05/02 04:19:28;;;;;;;16.23;14.32;;;;;;;8.16;100.00;99412.78;4954969;29;20197;-78
2022/05/02 04:21:54;;;;;;;18.60;12.82;;;;;;;8.30;100.00;99412.97;4940228;29;20206;-78
2022/05/02 04:24:21;;;;;;;19.92;14.13;;;;;;;8.24;100.00;99420.47;4936039;29;20210;-77
2022/05/02 04:26:47;;;;;;;16.15;14.45;;;;;;;8.29;100.00;99405.00;4935329;29;20191;-77
2022/05/02 04:29:15;;;;;;;15.32;13.75;;;;;;;8.47;100.00;99412.09;4947365;29;20196;-77
2022/05/02 04:31:42;;;;;;;18.77;14.45;;;;;;;8.41;100.00;99419.59;4954717;29;20672;-77
2022/05/02 04:34:08;;;;;;;19.67;14.80;;;;;;;8.32;100.00;99411.06;4939501;29;20565;-77
2022/05/02 04:36:35;;;;;;;17.02;14.98;;;;;;;8.45;100.00;99415.81;4953079;29;20195;-77
2022/05/02 04:39:02;;;;;;;15.25;13.73;;;;;;;8.45;100.00;99413.13;4954821;29;20211;-77
2022/05/02 04:41:28;;;;;;;18.38;13.93;;;;;;;8.50;100.00;99411.97;4955023;29;20190;-77
2022/05/02 04:43:55;;;;;;;17.13;14.55;;;;;;;8.61;100.00;99415.88;4954653;29;20189;-77
2022/05/02 04:46:23;;;;;;;15.70;12.50;;;;;;;8.75;100.00;99421.38;4954984;29;20606;-78
2022/05/02 04:48:49;;;;;;;17.63;13.57;;;;;;;8.71;100.00;99420.69;4941582;29;20211;-77
2022/05/02 04:51:16;;;;;;;15.80;12.10;;;;;;;8.86;100.00;99418.97;4935345;29;20195;-77
2022/05/02 04:53:43;;;;;;;15.68;14.15;;;;;;;8.97;100.00;99419.25;4944596;29;20199;-77
2022/05/02 04:56:09;;;;;;;16.60;14.10;;;;;;;8.90;100.00;99423.25;4940571;29;20195;-77
2022/05/02 04:58:36;;;;;;;17.88;13.45;;;;;;;9.00;100.00;99423.63;4940557;29;20206;-76
2022/05/02 05:01:06;;;;;;;15.23;13.65;;;;;;;8.98;100.00;99426.38;4944450;29;20204;-78
2022/05/02 05:03:34;;;;;;;17.85;13.60;;;;;;;9.16;100.00;99420.97;4938379;29;20196;-78
2022/05/02 05:06:00;;;;;;;14.35;12.82;;;;;;;9.14;100.00;99414.81;4946442;28;20203;-78
2022/05/02 05:08:27;;;;;;;15.95;14.40;;;;;;;9.12;100.00;99419.41;4962960;28;20279;-77
2022/05/02 05:11:05;;;;;;;16.00;14.15;;;;;;;9.17;100.00;99422.69;4937215;29;20682;-78
2022/05/02 05:13:39;;;;;;;22.77;20.23;;;;;;;9.10;100.00;99421.31;4935015;29;20680;-77
2022/05/02 05:16:25;;;;;;;17.92;14.48;;;;;;;8.96;100.00;99417.53;4936330;29;20192;-79
2022/05/02 05:19:22;;;;;;;20.15;15.93;;;;;;;9.26;100.00;99415.94;4936402;29;20254;-79
2022/05/02 05:22:00;;;;;;;17.88;13.93;;;;;;;9.36;100.00;99409.97;4955094;29;20226;-77
2022/05/02 05:25:07;;;;;;;15.77;13.32;;;;;;;9.33;100.00;99412.81;4956551;28;20228;-77
2022/05/02 05:27:47;;;;;;;19.27;15.15;;;;;;;9.37;100.00;99416.22;4956263;28;20604;-78
2022/05/02 05:30:19;;;;;;;17.25;13.70;;;;;;;9.51;100.00;99404.69;4955587;28;20199;-78
2022/05/02 05:32:57;;;;;;;17.60;13.93;;;;;;;9.52;100.00;99406.41;4944880;29;20199;-78
2022/05/02 05:35:44;;;;;;;20.83;16.17;;;;;;;9.65;100.00;99412.81;4957450;29;20655;-78
2022/05/02 05:38:17;;;;;;;18.25;14.35;;;;;;;9.72;100.00;99410.63;4955071;28;20200;-78
2022/05/02 05:40:50;;;;;;;22.20;19.40;;;;;;;9.87;100.00;99408.91;4956108;29;20191;-78
2022/05/02 05:43:29;;;;;;;18.55;14.38;;;;;;;9.70;100.00;99404.47;4949297;28;20208;-78
2022/05/02 05:46:19;;;;;;;15.75;13.90;;;;;;;9.73;100.00;99409.72;4955892;29;20196;-78
2022/05/02 05:48:56;;;;;;;18.13;14.90;;;;;;;9.90;100.00;99411.41;4939976;29;20740;-78
2022/05/02 05:51:34;;;;;;;23.73;16.20;;;;;;;9.95;100.00;99418.25;4955549;29;20195;-77
2022/05/02 05:54:18;;;;;;;16.30;14.60;;;;;;;10.09;100.00;99412.06;4950007;29;20192;-78
2022/05/02 05:56:54;;;;;;;20.60;15.70;;;;;;;10.23;100.00;99412.09;4956199;29;20196;-79
2022/05/02 05:59:32;;;;;;;20.00;16.63;;;;;;;10.44;100.00;99412.66;4960026;29;20208;-77
2022/05/02 06:02:07;;;;;;;21.20;14.85;;;;;;;10.51;100.00;99415.84;4958292;29;20196;-79
2022/05/02 06:04:34;;;;;;;18.35;15.10;;;;;;;10.57;100.00;99414.63;4956444;29;20184;-77
2022/05/02 06:07:03;;;;;;;17.63;14.65;;;;;;;10.78;100.00;99409.75;4956754;28;20199;-77
2022/05/02 06:09:31;;;;;;;20.15;16.83;;;;;;;10.96;100.00;99418.50;4959867;29;20199;-78
2022/05/02 06:11:58;;;;;;;17.45;14.63;;;;;;;10.94;100.00;99423.13;4955596;29;20223;-78
2022/05/02 06:14:28;;;;;;;17.35;15.13;;;;;;;11.24;100.00;99415.81;4953985;29;20212;-77
2022/05/02 06:19:44;;;;;;;17.58;14.18;;;;;;;11.75;100.00;99417.03;4952938;29;20283;-77
2022/05/02 06:22:13;;;;;;;17.75;15.05;;;;;;;11.85;100.00;99410.94;4953346;29;20210;-77
2022/05/02 06:24:44;;;;;;;18.33;16.02;;;;;;;11.74;100.00;99410.78;4953622;29;20555;-78
2022/05/02 06:27:11;;;;;;;17.40;14.63;;;;;;;11.75;100.00;99411.66;4953829;29;20193;-77
2022/05/02 06:29:41;;;;;;;19.02;15.02;;;;;;;11.70;100.00;99414.66;4955118;29;20185;-78
2022/05/02 06:32:12;;;;;;;16.17;14.27;;;;;;;11.86;100.00;99412.66;4955123;29;20550;-79
2022/05/02 06:34:40;;;;;;;17.10;14.95;;;;;;;11.68;100.00;99420.13;4955023;29;20667;-77
2022/05/02 06:37:22;;;;;;;17.92;15.98;;;;;;;11.97;100.00;99413.84;4955604;29;20197;-79
2022/05/02 06:40:05;;;;;;;16.73;14.93;;;;;;;12.25;100.00;99410.97;4955351;29;20193;-77
2022/05/02 06:42:38;;;;;;;16.80;14.85;;;;;;;12.37;100.00;99416.50;4956298;28;20205;-76
2022/05/02 06:45:15;;;;;;;18.27;15.38;;;;;;;12.46;100.00;99414.06;4958778;29;20616;-78
2022/05/02 06:47:58;;;;;;;16.10;14.40;;;;;;;12.65;100.00;99407.38;4956949;29;20260;-78
2022/05/02 06:50:26;;;;;;;16.08;14.43;;;;;;;12.94;99.85;99403.50;4955358;28;20199;-78
2022/05/02 06:53:13;;;;;;;17.05;15.20;;;;;;;13.26;97.18;99411.13;4959454;29;20195;-77
2022/05/02 06:55:50;;;;;;;16.17;14.60;;;;;;;13.24;95.80;99409.50;4959510;29;20210;-78
2022/05/02 06:58:26;;;;;;;18.02;15.02;;;;;;;13.30;95.35;99409.97;4958569;29;20195;-78
2022/05/02 07:01:02;;;;;;;19.38;15.55;;;;;;;13.53;94.03;99404.72;4958686;29;20186;-78
2022/05/02 07:04:02;;;;;;;17.70;14.95;;;;;;;13.53;92.22;99405.59;4958593;29;20191;-77
2022/05/02 07:06:42;;;;;;;19.42;15.15;;;;;;;13.62;92.57;99405.91;4958263;29;20186;-77
2022/05/02 07:09:14;;;;;;;20.63;16.00;;;;;;;13.71;92.01;99407.91;4958073;29;20204;-77
2022/05/02 07:11:48;;;;;;;23.33;15.32;;;;;;;13.87;90.90;99404.94;4958728;29;20195;-77
2022/05/02 07:14:22;;;;;;;18.27;15.52;;;;;;;13.90;90.17;99408.25;4958346;29;20209;-78
2022/05/02 07:16:50;;;;;;;20.23;16.92;;;;;;;14.14;89.01;99404.69;4957482;29;20683;-77
2022/05/02 07:19:31;;;;;;;16.95;15.25;;;;;;;14.04;87.88;99404.53;4957236;29;20638;-79
2022/05/02 07:22:01;;;;;;;16.88;15.18;;;;;;;14.00;89.05;99412.97;4957445;29;20257;-77
2022/05/02 07:24:39;;;;;;;17.63;15.60;;;;;;;14.06;88.27;99416.09;4957868;29;20202;-78
2022/05/02 07:27:15;;;;;;;18.75;15.63;;;;;;;14.30;87.33;99402.53;4957494;29;20196;-78
2022/05/02 07:29:45;;;;;;;17.58;14.60;;;;;;;14.61;84.77;99413.75;4957549;29;20662;-77
2022/05/02 07:32:14;;;;;;;16.00;14.40;;;;;;;14.50;84.67;99411.84;4958592;28;20616;-78
2022/05/02 07:34:48;;;;;;;16.67;14.93;;;;;;;14.45;84.79;99418.56;4957907;29;20679;-78
2022/05/02 07:37:15;;;;;;;17.00;14.70;;;;;;;14.54;85.08;99416.06;4957748;29;20199;-77
2022/05/02 07:39:46;;;;;;;16.40;14.57;;;;;;;14.64;84.66;99418.06;4958483;29;20969;-78
2022/05/02 07:42:13;;;;;;;16.00;14.40;;;;;;;14.70;82.53;99415.75;4958741;29;20601;-77
2022/05/02 07:44:44;;;;;;;16.52;14.23;;;;;;;14.76;82.93;99412.53;4958962;29;20214;-78
2022/05/02 07:47:11;;;;;;;15.82;13.95;;;;;;;14.60;84.15;99412.00;4959619;29;20281;-77
2022/05/02 07:49:39;;;;;;;15.43;13.70;;;;;;;14.67;83.46;99415.09;4958801;29;20211;-77
2022/05/02 07:52:08;;;;;;;15.05;13.55;;;;;;;14.67;83.59;99423.25;4959282;29;20206;-78
2022/05/02 07:54:39;;;;;;;16.83;13.30;;;;;;;14.84;82.16;99416.50;4958531;29;20220;-77
2022/05/02 07:57:09;;;;;;;15.10;13.50;;;;;;;14.91;81.25;99420.47;4959190;28;20201;-76
2022/05/02 07:59:39;;;;;;;15.05;13.32;;;;;;;15.09;80.86;99410.88;4958963;29;20192;-78
2022/05/02 08:02:06;;;;;;;14.93;13.45;;;;;;;15.29;78.96;99414.69;4957964;28;20211;-77
2022/05/02 08:04:33;;;;;;;13.98;12.45;;;;;;;15.49;77.66;99410.38;4959428;29;20546;-78
2022/05/02 08:07:09;;;;;;;14.20;12.80;;;;;;;15.71;75.76;99417.63;4958755;29;20279;-77
2022/05/02 08:09:57;;;;;;;15.40;12.80;;;;;;;15.93;73.09;99407.72;4958285;29;20189;-76
2022/05/02 08:12:29;;;;;;;12.77;11.63;;;;;;;15.68;74.27;99415.13;4958372;29;20250;-78
2022/05/02 08:15:03;;;;;;;14.10;12.70;;;;;;;15.94;72.49;99410.31;4958362;29;20301;-78
2022/05/02 08:18:16;;;;;;;17.08;13.18;;;;;;;15.95;72.77;99403.03;4960852;29;20331;-78
2022/05/02 08:20:49;;;;;;;13.63;12.30;;;;;;;16.23;70.65;99404.25;4958935;28;20185;-78
2022/05/02 08:29:30;;;;;;;15.23;12.07;;;;;;;16.56;67.75;99405.09;4956371;29;20184;-77
2022/05/02 08:32:06;;;;;;;14.75;13.20;;;;;;;16.59;67.43;99396.69;4956797;29;20193;-76
2022/05/02 08:34:42;;;;;;;14.38;12.50;;;;;;;16.91;66.16;99401.19;4956930;29;20518;-76
2022/05/02 08:37:26;;;;;;;12.95;11.60;;;;;;;17.20;64.14;99399.50;4961438;29;20193;-79
2022/05/02 08:40:08;;;;;;;13.10;11.90;;;;;;;17.38;62.66;99396.13;4958704;29;20221;-76
2022/05/02 08:43:09;;;;;;;14.73;12.82;;;;;;;17.44;61.59;99401.88;4956455;29;20188;-77
2022/05/02 08:46:18;;;;;;;13.43;12.02;;;;;;;17.38;61.68;99402.44;4956016;29;20640;-78
2022/05/02 08:49:36;;;;;;;13.27;11.98;;;;;;;17.35;61.42;99404.59;4955688;29;20193;-76
2022/05/02 08:52:47;;;;;;;12.65;11.43;;;;;;;17.82;59.54;99397.59;4956152;29;20283;-77
2022/05/02 08:55:38;;;;;;;15.63;12.90;;;;;;;17.97;57.17;99389.84;4955703;28;20217;-76
2022/05/02 08:58:40;;;;;;;12.95;11.23;;;;;;;17.71;58.46;99393.09;4955421;29;20207;-77
2022/05/02 09:01:30;;;;;;;13.18;11.75;;;;;;;17.96;57.62;99390.88;4952506;29;20193;-77
2022/05/02 09:04:40;;;;;;;13.20;12.00;;;;;;;17.91;57.28;99388.56;4949588;29;20195;-76
2022/05/02 09:07:39;;;;;;;12.73;11.20;;;;;;;17.91;56.65;99383.13;4937276;29;20644;-77
2022/05/02 09:10:09;;;;;;;13.10;11.90;;;;;;;18.38;55.20;99379.69;4933960;29;20218;-76
2022/05/02 09:13:16;;;;;;;13.02;11.73;;;;;;;18.54;54.36;99384.53;4938279;29;20724;-77
2022/05/02 09:16:15;;;;;;;13.00;11.45;;;;;;;18.61;53.33;99374.78;4939195;29;20263;-76
2022/05/02 09:19:17;;;;;;;12.68;11.38;;;;;;;18.60;53.04;99377.66;4955014;29;20216;-76
2022/05/02 09:22:04;;;;;;;13.60;12.30;;;;;;;17.99;53.06;99374.22;4930337;28;20218;-76
2022/05/02 09:25:04;;;;;;;12.50;11.40;;;;;;;18.30;53.66;99374.09;4954690;29;20216;-76
2022/05/02 09:27:53;;;;;;;12.60;11.25;;;;;;;18.40;50.62;99368.63;4954691;29;20194;-78
2022/05/02 09:30:51;;;;;;;12.07;10.88;;;;;;;18.70;49.31;99376.66;4954917;29;20195;-76
2022/05/02 09:33:37;;;;;;;11.60;10.40;;;;;;;19.18;48.54;99374.81;4955376;29;20693;-76
2022/05/02 09:36:14;;;;;;;11.93;10.75;;;;;;;19.30;48.28;99370.88;4954715;29;20309;-76
2022/05/02 09:38:50;;;;;;;12.30;11.10;;;;;;;19.66;46.83;99360.03;4953124;29;20286;-76
2022/05/02 09:41:36;;;;;;;10.82;9.73;;;;;;;19.90;45.57;99356.75;4953533;29;20203;-75
2022/05/02 09:50:09;;;;;;;12.93;11.63;;;;;;;17.88;49.43;99358.03;4950414;29;20337;-76
2022/05/02 09:52:52;;;;;;;11.00;9.88;;;;;;;18.48;45.80;99355.16;4952924;29;20199;-76
2022/05/02 09:58:33;;;;;;;10.30;9.20;;;;;;;19.22;42.37;99348.94;4935369;29;20268;-76
2022/05/02 10:01:11;;;;;;;13.40;10.23;;;;;;;18.89;44.63;99351.22;4951280;29;20298;-76
2022/05/02 10:03:40;;;;;;;12.00;9.70;;;;;;;19.38;42.29;99348.28;4953633;29;20198;-77
2022/05/02 10:06:10;;;;;;;12.97;10.50;;;;;;;19.77;41.75;99346.22;4954147;29;20200;-76
2022/05/02 10:08:50;;;;;;;10.75;9.75;;;;;;;19.89;41.86;99343.25;4954085;29;20858;-76
2022/05/02 10:11:41;;;;;;;12.02;10.77;;;;;;;19.95;41.56;99339.91;4953499;29;20201;-76
2022/05/02 10:14:39;;;;;;;10.33;9.37;;;;;;;19.48;43.97;99338.16;4953790;29;20196;-76
2022/05/02 10:17:08;;;;;;;10.95;9.65;;;;;;;19.55;44.61;99341.13;4953570;28;20487;-76
2022/05/02 10:20:05;;;;;;;10.77;9.77;;;;;;;19.06;44.95;99343.25;4954022;29;20247;-76
2022/05/02 10:22:47;;;;;;;11.05;9.05;;;;;;;19.41;44.05;99338.94;4954120;28;20208;-76
2022/05/02 10:25:20;;;;;;;11.23;10.05;;;;;;;19.65;42.58;99335.59;4954315;28;20204;-76
2022/05/02 10:28:19;;;;;;;10.45;9.55;;;;;;;19.92;41.85;99327.41;4957209;29;20290;-75
2022/05/02 10:30:57;;;;;;;9.50;8.70;;;;;;;20.16;41.38;99323.19;4957541;29;20207;-77
2022/05/02 10:33:31;;;;;;;10.97;9.63;;;;;;;20.38;41.78;99316.38;4957134;28;20280;-76
2022/05/02 10:36:00;;;;;;;9.40;8.50;;;;;;;20.23;42.17;99324.25;4957141;29;20475;-76
2022/05/02 10:38:29;;;;;;;9.10;8.30;;;;;;;19.71;43.29;99327.69;4957097;28;20432;-76
2022/05/02 10:41:02;;;;;;;10.20;9.20;;;;;;;20.15;43.20;99324.22;4960887;28;20812;-75
2022/05/02 10:43:34;;;;;;;9.93;8.93;;;;;;;20.19;42.83;99317.38;4956378;29;20440;-76
2022/05/02 10:46:02;;;;;;;11.33;10.13;;;;;;;20.11;43.00;99318.19;4955943;29;20439;-76
2022/05/02 10:48:39;;;;;;;9.90;9.00;;;;;;;19.76;43.42;99324.50;4957270;29;20451;-76
2022/05/02 10:51:17;;;;;;;12.50;10.73;;;;;;;19.68;44.12;99316.19;4957429;29;20444;-76
2022/05/02 10:54:18;;;;;;;10.63;9.60;;;;;;;19.54;44.48;99315.72;4956981;29;20447;-75
2022/05/02 10:56:46;;;;;;;13.73;12.37;;;;;;;19.87;44.24;99305.16;4953190;28;20494;-76
2022/05/02 10:59:15;;;;;;;10.47;9.07;;;;;;;20.23;43.40;99310.59;4956984;29;20458;-76
2022/05/02 11:02:25;;;;;;;10.60;9.50;;;;;;;20.25;43.02;99304.97;4956942;28;20538;-76
2022/05/02 11:05:15;;;;;;;10.27;9.30;;;;;;;20.77;41.58;99305.03;4952185;29;20445;-77
2022/05/02 11:07:53;;;;;;;11.80;10.13;;;;;;;20.28;42.94;99300.03;4944878;29;21008;-76
2022/05/02 11:10:21;;;;;;;12.30;11.10;;;;;;;20.63;42.86;99302.91;4940309;29;20455;-75
2022/05/02 11:12:50;;;;;;;12.43;9.53;;;;;;;20.99;41.77;99299.00;4956844;28;20444;-75
2022/05/02 11:15:22;;;;;;;11.30;9.17;;;;;;;20.57;42.06;99296.19;4957515;29;20465;-76
2022/05/02 11:18:04;;;;;;;10.67;9.60;;;;;;;20.80;42.20;99293.75;4952663;29;20472;-76
2022/05/02 11:20:42;;;;;;;10.27;9.20;;;;;;;20.29;42.19;99292.72;4955336;29;20447;-75
2022/05/02 11:23:38;;;;;;;9.90;8.83;;;;;;;20.57;41.75;99287.97;4956353;29;20526;-76
2022/05/02 11:26:17;;;;;;;10.00;9.00;;;;;;;21.51;39.62;99281.63;4939628;29;20452;-76
2022/05/02 11:29:00;;;;;;;12.50;10.43;;;;;;;21.80;39.28;99283.91;4956122;28;20479;-77
2022/05/02 11:31:35;;;;;;;10.17;9.17;;;;;;;21.70;39.77;99282.34;4956064;29;20451;-77
2022/05/02 11:34:10;;;;;;;10.30;9.27;;;;;;;22.13;39.33;99286.66;4955209;29;20436;-77
2022/05/02 11:36:47;;;;;;;12.10;9.20;;;;;;;22.60;38.65;99288.72;4956248;28;20985;-76
2022/05/02 11:39:21;;;;;;;13.60;12.20;;;;;;;22.76;38.35;99287.81;4956009;29;20440;-76
2022/05/02 11:41:51;;;;;;;10.30;9.30;;;;;;;22.68;38.25;99280.47;4955467;29;20455;-76
2022/05/02 11:44:20;;;;;;;11.83;10.53;;;;;;;21.65;39.84;99275.47;4956589;28;20470;-77
2022/05/02 11:47:13;;;;;;;10.90;9.77;;;;;;;21.81;39.41;99274.66;4956253;29;20437;-77
2022/05/02 11:49:58;;;;;;;9.43;8.27;;;;;;;21.34;39.99;99279.81;4956582;29;20449;-76
2022/05/02 11:52:35;;;;;;;10.37;9.40;;;;;;;21.67;40.27;99271.72;4956643;29;20480;-76
2022/05/02 11:55:03;;;;;;;11.13;8.27;;;;;;;22.31;39.03;99267.31;4956666;29;20471;-75
2022/05/02 11:57:37;;;;;;;8.70;7.90;;;;;;;22.72;37.83;99271.88;4956592;29;20538;-76
2022/05/02 12:00:10;;;;;;;11.80;10.60;;;;;;;22.69;37.94;99265.72;4955108;29;20448;-76
2022/05/02 12:02:51;;;;;;;9.80;8.10;;;;;;;22.44;37.55;99269.53;4955700;29;20437;-76
2022/05/02 12:05:24;;;;;;;10.53;9.13;;;;;;;21.98;38.57;99266.44;4956741;29;20907;-76
2022/05/02 12:07:53;;;;;;;10.70;9.20;;;;;;;22.36;38.00;99275.03;4956380;29;20942;-76
2022/05/02 12:10:20;;;;;;;9.57;8.67;;;;;;;22.93;36.92;99265.81;4955789;29;20444;-76